Time;durP1;ratioP1;P1;durP2;ratioP2;P2;SDS_P1;SDS_P2;PMS_P1;PMS_P2;Temp;Humidity;BMP_temperature;BMP_pressure;BME280_temperature;BME280_humidity;BME280_pressure;Samples;Min_cycle;Max_cycle;Signal;HPM_P1;HPM_P2
2022/09/09 00:03:18;;;;;;;7.60;5.60;;;;;;;20.72;65.45;98607.75;238641;1192;142060;-55
2022/09/09 00:08:31;;;;;;;8.30;5.50;;;;;;;20.77;65.63;98613.20;238683;1191;140992;-57
2022/09/09 00:13:42;;;;;;;5.80;5.30;;;;;;;20.75;65.52;98619.17;238841;1190;140462;-57
2022/09/09 00:19:17;;;;;;;6.90;5.60;;;;;;;20.69;65.58;98612.11;238884;1190;139265;-56
2022/09/09 00:24:43;;;;;;;6.40;5.60;;;;;;;20.53;65.56;98617.11;238930;1190;139651;-56
2022/09/09 00:30:13;;;;;;;6.60;5.00;;;;;;;20.42;65.84;98609.65;238867;1191;139954;-58
2022/09/09 00:35:23;;;;;;;6.30;4.80;;;;;;;20.41;65.84;98612.25;238949;1190;139873;-58
2022/09/09 00:40:31;;;;;;;6.00;5.00;;;;;;;20.47;66.16;98615.97;238747;1190;141196;-57
2022/09/09 00:46:02;;;;;;;10.30;5.90;;;;;;;20.54;66.18;98612.46;238161;1192;139989;-58
2022/09/09 00:51:23;;;;;;;7.10;5.50;;;;;;;20.54;66.05;98621.81;238363;1190;139381;-60
2022/09/09 00:57:02;;;;;;;5.30;4.80;;;;;;;20.52;65.99;98630.54;238665;1190;139970;-58
2022/09/09 01:02:22;;;;;;;6.60;4.90;;;;;;;20.47;65.88;98631.20;238613;1192;140150;-58
2022/09/09 01:07:25;;;;;;;6.60;5.00;;;;;;;20.44;65.86;98630.91;238515;1191;140685;-58
2022/09/09 01:12:43;;;;;;;6.90;5.00;;;;;;;20.41;65.95;98632.45;237989;1190;139452;-59
2022/09/09 01:17:57;;;;;;;6.60;5.50;;;;;;;20.37;65.98;98644.28;238853;1190;139976;-58
2022/09/09 01:23:35;;;;;;;8.90;5.00;;;;;;;20.29;65.93;98649.61;238680;1192;139928;-60
2022/09/09 01:28:54;;;;;;;6.70;5.00;;;;;;;20.26;65.94;98654.06;238688;1192;140539;-60
2022/09/09 01:34:11;;;;;;;5.70;5.10;;;;;;;20.30;66.18;98653.66;238725;1192;139484;-58
2022/09/09 01:39:15;;;;;;;6.80;6.00;;;;;;;20.29;65.96;98662.02;238573;1191;140201;-57
2022/09/09 01:44:19;;;;;;;6.50;5.60;;;;;;;20.25;66.05;98671.09;238666;1191;140390;-59
2022/09/09 01:49:23;;;;;;;5.90;5.30;;;;;;;20.30;65.99;98676.77;238802;1192;140055;-58
2022/09/09 01:54:29;;;;;;;5.90;5.30;;;;;;;20.30;65.94;98678.33;238536;1190;140701;-58
2022/09/09 02:00:10;;;;;;;6.60;5.90;;;;;;;20.29;65.92;98685.08;238949;1191;140537;-58
2022/09/09 02:05:36;;;;;;;7.80;6.40;;;;;;;20.29;65.97;98694.13;238615;1190;140284;-58
2022/09/09 02:10:58;;;;;;;7.70;5.80;;;;;;;20.28;65.96;98696.25;238482;1191;139766;-59
2022/09/09 02:16:24;;;;;;;8.50;5.60;;;;;;;20.26;65.88;98702.16;238825;1190;141194;-59
2022/09/09 02:21:31;;;;;;;7.60;6.40;;;;;;;20.26;66.04;98710.11;238998;1190;139315;-58
2022/09/09 02:26:40;;;;;;;7.40;6.60;;;;;;;20.25;66.09;98708.21;238702;1190;139934;-59
2022/09/09 02:31:47;;;;;;;7.60;6.20;;;;;;;20.20;65.91;98712.22;238559;1191;139354;-59
2022/09/09 02:36:55;;;;;;;7.00;5.20;;;;;;;20.06;65.85;98717.61;238709;1190;138958;-60
2022/09/09 02:41:58;;;;;;;5.90;5.10;;;;;;;20.00;65.90;98727.07;238746;1190;141089;-58
2022/09/09 02:47:28;;;;;;;8.00;5.40;;;;;;;20.00;66.07;98730.00;238793;1191;139946;-60
2022/09/09 02:52:59;;;;;;;6.50;5.80;;;;;;;19.99;66.11;98735.17;238726;1190;140105;-60
2022/09/09 02:58:06;;;;;;;8.80;6.10;;;;;;;19.95;66.06;98743.70;238695;1191;139943;-61
2022/09/09 03:03:10;;;;;;;5.70;5.20;;;;;;;19.89;65.99;98742.92;238549;1191;139239;-60
2022/09/09 03:08:14;;;;;;;6.50;5.70;;;;;;;19.79;65.80;98748.05;238837;1190;141091;-59
2022/09/09 03:13:19;;;;;;;7.80;5.60;;;;;;;19.70;65.83;98754.98;238771;1192;140965;-58
2022/09/09 03:18:22;;;;;;;7.00;6.30;;;;;;;19.62;66.07;98753.98;238941;1191;139953;-60
2022/09/09 03:23:27;;;;;;;7.40;6.40;;;;;;;19.57;66.19;98754.84;238729;1190;139559;-58
2022/09/09 03:28:32;;;;;;;7.50;6.20;;;;;;;19.51;66.16;98755.28;238780;1190;140353;-59
2022/09/09 03:33:38;;;;;;;10.40;6.60;;;;;;;19.49;66.23;98749.88;238886;1190;140085;-59
2022/09/09 03:38:41;;;;;;;8.30;7.10;;;;;;;19.47;66.30;98750.89;238624;1192;140448;-59
2022/09/09 03:43:44;;;;;;;8.10;7.20;;;;;;;19.41;66.39;98754.84;238864;1191;140650;-59
2022/09/09 03:48:47;;;;;;;10.80;8.30;;;;;;;19.38;66.50;98757.17;238932;1190;139394;-59
2022/09/09 03:53:50;;;;;;;10.50;7.30;;;;;;;19.33;66.49;98763.59;238938;1190;140046;-60
2022/09/09 03:58:53;;;;;;;7.80;6.70;;;;;;;19.34;66.60;98771.29;238568;1192;140180;-60
2022/09/09 04:03:58;;;;;;;7.30;6.60;;;;;;;19.30;66.59;98772.77;238639;1191;140415;-59
2022/09/09 04:09:03;;;;;;;8.00;7.10;;;;;;;19.27;66.79;98771.77;238507;1191;139952;-60
2022/09/09 04:14:06;;;;;;;9.20;6.40;;;;;;;19.23;66.86;98780.70;238636;1190;139731;-57
2022/09/09 04:19:13;;;;;;;9.30;6.80;;;;;;;19.13;66.98;98773.75;238774;1190;140582;-57
2022/09/09 04:24:17;;;;;;;11.40;7.30;;;;;;;19.12;67.12;98782.86;238686;1191;140344;-57
2022/09/09 04:29:20;;;;;;;10.10;8.00;;;;;;;19.13;67.17;98782.95;238898;1190;140985;-59
2022/09/09 04:34:23;;;;;;;8.60;7.30;;;;;;;19.15;67.33;98775.67;238906;1191;140146;-59
2022/09/09 04:39:30;;;;;;;11.30;7.90;;;;;;;19.16;67.36;98777.98;238723;1191;139087;-58
2022/09/09 04:44:34;;;;;;;8.30;7.30;;;;;;;19.16;67.26;98775.42;238624;1191;140115;-59
2022/09/09 04:49:38;;;;;;;11.10;7.50;;;;;;;19.17;67.29;98771.75;238903;1190;140747;-58
2022/09/09 04:54:41;;;;;;;9.60;8.10;;;;;;;19.19;67.47;98773.19;238728;1191;139699;-58
2022/09/09 04:59:45;;;;;;;9.70;8.70;;;;;;;19.23;67.45;98777.58;238755;1192;140022;-57
2022/09/09 05:04:49;;;;;;;10.40;8.70;;;;;;;19.25;67.41;98779.02;238723;1192;139136;-59
2022/09/09 05:09:52;;;;;;;13.80;8.30;;;;;;;19.29;67.39;98779.11;238927;1190;140187;-59
2022/09/09 05:14:55;;;;;;;8.80;7.80;;;;;;;19.34;67.30;98784.04;238855;1190;240240;-59
2022/09/09 05:19:58;;;;;;;11.20;7.80;;;;;;;19.39;67.46;98788.56;238713;1190;139486;-60
2022/09/09 05:25:01;;;;;;;14.20;8.10;;;;;;;19.46;67.58;98794.71;238535;1191;140530;-60
2022/09/09 05:30:06;;;;;;;9.40;6.80;;;;;;;19.51;67.45;98796.30;238856;1190;139234;-59
2022/09/09 05:35:09;;;;;;;9.50;7.10;;;;;;;19.47;67.30;98802.14;238826;1190;139756;-60
2022/09/09 05:40:14;;;;;;;11.50;7.10;;;;;;;19.45;67.29;98802.84;238667;1192;141257;-60
2022/09/09 05:45:17;;;;;;;10.30;6.70;;;;;;;19.48;67.33;98810.64;238535;1191;139526;-58
2022/09/09 05:50:20;;;;;;;12.40;8.20;;;;;;;19.55;67.51;98808.52;238736;1191;139844;-58
2022/09/09 05:55:25;;;;;;;13.10;9.00;;;;;;;19.59;67.41;98808.38;238581;1192;140761;-58
2022/09/09 06:00:31;;;;;;;16.40;9.50;;;;;;;19.58;67.32;98813.42;238661;1192;139631;-59
2022/09/09 06:05:35;;;;;;;13.60;10.60;;;;;;;19.59;67.37;98810.43;238552;1192;140685;-59
2022/09/09 06:10:37;;;;;;;16.90;13.80;;;;;;;19.65;67.29;98816.10;238521;1192;140865;-59
2022/09/09 06:15:49;;;;;;;16.40;13.40;;;;;;;19.69;67.23;98825.77;238678;1192;142341;-60
2022/09/09 06:21:00;;;;;;;17.50;11.40;;;;;;;19.69;66.99;98832.33;238602;1192;140715;-60
2022/09/09 06:26:07;;;;;;;12.90;10.10;;;;;;;19.70;67.10;98832.34;238707;1191;139947;-60
2022/09/09 06:31:13;;;;;;;13.40;10.00;;;;;;;19.88;67.22;98837.16;238725;1190;141183;-60
2022/09/09 06:36:18;;;;;;;16.30;11.50;;;;;;;20.00;66.98;98834.79;238838;1190;140591;-61
2022/09/09 06:41:22;;;;;;;16.10;13.20;;;;;;;20.10;66.90;98829.68;238714;1191;139574;-60
2022/09/09 06:46:28;;;;;;;24.50;16.00;;;;;;;20.18;66.79;98831.34;238753;1191;140334;-61
2022/09/09 06:51:34;;;;;;;13.50;9.70;;;;;;;20.19;66.32;98829.45;238756;1190;140255;-60
2022/09/09 06:56:43;;;;;;;11.40;8.90;;;;;;;20.20;66.22;98826.55;238678;1191;140482;-60
2022/09/09 07:01:56;;;;;;;17.10;9.50;;;;;;;20.29;66.24;98825.96;238694;1191;140481;-60
2022/09/09 07:07:00;;;;;;;12.70;9.10;;;;;;;20.34;65.97;98827.63;238644;1191;140240;-60
2022/09/09 07:12:05;;;;;;;9.60;8.40;;;;;;;20.32;65.75;98825.06;238867;1191;140192;-62
2022/09/09 07:17:09;;;;;;;10.00;6.90;;;;;;;20.36;65.64;98828.20;238872;1190;139691;-60
2022/09/09 07:22:14;;;;;;;9.60;7.30;;;;;;;20.41;65.64;98828.02;238819;1190;140469;-60
2022/09/09 07:27:17;;;;;;;15.70;10.40;;;;;;;20.50;65.56;98830.41;238774;1191;140173;-61
2022/09/09 07:32:23;;;;;;;12.30;7.10;;;;;;;20.60;65.48;98825.93;238796;1190;140307;-62
2022/09/09 07:37:26;;;;;;;10.50;9.30;;;;;;;20.62;65.03;98822.56;238673;1191;140632;-58
2022/09/09 07:42:29;;;;;;;12.70;9.90;;;;;;;20.57;64.74;98826.33;238581;1192;139210;-59
2022/09/09 07:47:33;;;;;;;12.90;8.40;;;;;;;20.52;64.63;98829.02;238448;1192;140330;-56
2022/09/09 07:52:37;;;;;;;12.60;9.10;;;;;;;20.56;64.73;98826.19;238631;1192;141215;-57
2022/09/09 07:57:40;;;;;;;12.70;9.40;;;;;;;20.67;64.80;98835.01;238497;1191;140035;-58
2022/09/09 08:02:44;;;;;;;13.50;9.10;;;;;;;20.77;64.45;98838.22;238595;1191;139912;-57
2022/09/09 08:07:48;;;;;;;12.40;9.10;;;;;;;20.86;64.26;98829.32;238600;1192;139413;-58
2022/09/09 08:12:52;;;;;;;9.00;6.50;;;;;;;20.96;64.17;98829.27;238631;1190;140928;-56
2022/09/09 08:18:15;;;;;;;12.30;6.10;;;;;;;21.06;63.99;98833.50;238603;1190;140171;-57
2022/09/09 08:23:19;;;;;;;8.80;5.10;;;;;;;21.22;63.90;98832.98;238717;1192;139576;-56
2022/09/09 08:28:22;;;;;;;6.70;4.80;;;;;;;21.39;63.70;98840.55;238854;1191;140325;-57
2022/09/09 08:33:25;;;;;;;10.10;4.90;;;;;;;21.52;63.59;98846.08;238592;1190;139613;-57
2022/09/09 08:38:28;;;;;;;9.60;4.10;;;;;;;21.65;63.10;98841.58;238613;1192;139222;-57
2022/09/09 08:43:33;;;;;;;4.40;3.70;;;;;;;21.70;62.46;98844.14;238648;1191;140044;-59
2022/09/09 08:48:48;;;;;;;6.80;4.00;;;;;;;21.75;62.17;98840.10;238811;1190;140052;-57
2022/09/09 08:53:52;;;;;;;4.00;3.10;;;;;;;21.85;61.97;98848.59;238845;1190;140153;-58
2022/09/09 08:59:03;;;;;;;4.90;3.00;;;;;;;21.94;61.48;98851.02;238681;1191;140863;-58
2022/09/09 09:04:39;;;;;;;3.10;2.20;;;;;;;22.04;61.11;98846.08;238603;1191;139705;-59
2022/09/09 09:09:59;;;;;;;7.00;2.70;;;;;;;22.14;60.69;98853.41;238610;1192;140492;-58
2022/09/09 09:15:16;;;;;;;7.70;2.50;;;;;;;22.24;60.25;98858.83;238407;1192;140217;-58
2022/09/09 09:20:43;;;;;;;5.90;2.50;;;;;;;22.34;60.09;98854.77;238528;1192;139208;-57
2022/09/09 09:25:49;;;;;;;4.00;2.60;;;;;;;22.45;59.67;98858.45;238780;1192;140325;-56
2022/09/09 09:31:01;;;;;;;4.40;2.60;;;;;;;22.55;59.38;98854.98;238790;1191;138903;-56
2022/09/09 09:36:07;;;;;;;6.40;2.40;;;;;;;22.63;59.17;98846.44;238840;1190;140874;-56
2022/09/09 09:41:11;;;;;;;6.70;2.20;;;;;;;22.62;58.80;98853.27;238802;1191;140043;-57
2022/09/09 09:46:23;;;;;;;3.60;1.80;;;;;;;22.62;58.43;98855.44;238502;1191;139168;-56
2022/09/09 09:51:30;;;;;;;9.00;4.20;;;;;;;22.66;58.27;98846.08;238538;1192;140165;-58
2022/09/09 09:56:33;;;;;;;4.40;2.20;;;;;;;22.76;58.68;98843.96;238874;1190;140520;-56
2022/09/09 10:02:17;;;;;;;4.90;1.90;;;;;;;22.91;58.18;98843.52;234615;1208;635596;-57
2022/09/09 10:07:22;;;;;;;4.10;1.40;;;;;;;22.97;57.33;98840.17;237255;1196;138876;-57
2022/09/09 10:13:00;;;;;;;7.30;2.10;;;;;;;23.11;56.92;98842.84;236857;1196;138799;-56
2022/09/09 10:18:21;;;;;;;4.70;1.50;;;;;;;23.30;56.70;98836.94;236950;1196;138988;-57
2022/09/09 10:23:27;;;;;;;5.80;1.70;;;;;;;23.42;56.28;98827.75;236838;1196;138340;-56
2022/09/09 10:28:49;;;;;;;4.90;2.10;;;;;;;23.69;56.02;98825.98;237067;1196;138503;-55
2022/09/09 10:34:17;;;;;;;5.10;2.60;;;;;;;23.97;56.02;98830.60;236766;1198;140323;-56
2022/09/09 10:39:34;;;;;;;3.40;1.60;;;;;;;24.26;55.35;98837.47;237032;1196;138254;-57
2022/09/09 10:45:08;;;;;;;2.90;1.20;;;;;;;24.32;54.86;98831.23;236957;1196;138904;-57
2022/09/09 10:50:22;;;;;;;2.80;1.60;;;;;;;24.36;54.03;98831.89;237111;1196;139279;-57
2022/09/09 10:55:45;;;;;;;1.50;1.10;;;;;;;24.37;53.58;98841.71;236792;1196;138592;-58
2022/09/09 11:00:56;;;;;;;2.50;1.20;;;;;;;24.30;52.69;98838.38;236886;1196;139398;-57
2022/09/09 11:06:06;;;;;;;5.10;1.40;;;;;;;24.25;52.34;98831.76;237284;1196;139276;-57
2022/09/09 11:11:31;;;;;;;3.10;1.40;;;;;;;24.21;51.83;98833.66;236873;1196;138866;-57
2022/09/09 11:16:48;;;;;;;3.20;1.20;;;;;;;24.23;51.77;98840.64;236981;1196;138714;-56
2022/09/09 11:21:53;;;;;;;3.00;1.10;;;;;;;24.30;51.54;98837.43;236469;1196;139451;-57
2022/09/09 11:27:02;;;;;;;3.90;1.30;;;;;;;24.31;51.43;98828.15;236772;1196;138705;-57
2022/09/09 11:32:47;;;;;;;6.10;1.10;;;;;;;24.45;51.14;98830.73;236609;1196;139178;-57
2022/09/09 11:38:04;;;;;;;4.00;1.30;;;;;;;24.59;50.89;98825.08;236630;1196;138411;-58
2022/09/09 11:43:30;;;;;;;3.10;1.10;;;;;;;24.74;50.95;98829.50;236556;1198;138363;-57
2022/09/09 11:53:27;;;;;;;1.10;0.90;;;;;;;25.30;49.83;98825.39;234784;1206;636568;-57
2022/09/09 11:58:38;;;;;;;1.90;0.90;;;;;;;25.50;49.46;98814.50;237449;1195;139054;-55
2022/09/09 12:03:46;;;;;;;4.20;1.20;;;;;;;25.97;49.34;98820.48;237414;1195;138104;-59
2022/09/09 12:08:57;;;;;;;2.50;1.10;;;;;;;26.24;48.45;98814.64;237455;1196;138967;-58
2022/09/09 12:14:01;;;;;;;0.80;0.70;;;;;;;26.54;47.79;98819.30;237328;1196;138288;-56
2022/09/09 12:19:05;;;;;;;1.60;0.90;;;;;;;26.79;47.34;98818.91;236992;1196;138226;-56
2022/09/09 12:24:18;;;;;;;1.80;1.00;;;;;;;26.96;46.58;98816.44;237272;1196;138073;-56
2022/09/09 12:29:33;;;;;;;3.90;1.20;;;;;;;26.92;46.03;98808.14;237370;1196;140881;-56
2022/09/09 12:34:41;;;;;;;2.20;1.00;;;;;;;26.97;46.45;98817.06;237351;1196;138535;-58
2022/09/09 12:39:51;;;;;;;4.40;1.10;;;;;;;26.91;46.25;98812.97;237298;1196;138186;-58
2022/09/09 12:45:16;;;;;;;3.80;1.10;;;;;;;26.65;46.10;98810.63;237337;1196;138912;-59
2022/09/09 12:50:26;;;;;;;3.20;1.00;;;;;;;26.33;45.73;98810.45;237368;1196;138661;-59
2022/09/09 12:55:33;;;;;;;3.40;1.20;;;;;;;26.07;45.95;98813.19;237155;1196;138280;-56
2022/09/09 13:00:36;;;;;;;1.20;1.10;;;;;;;25.85;45.83;98803.89;237358;1196;139116;-58
2022/09/09 13:05:39;;;;;;;4.30;1.40;;;;;;;25.66;45.74;98812.07;237211;1195;138241;-58
2022/09/09 13:10:46;;;;;;;1.80;1.30;;;;;;;25.51;45.85;98816.14;237359;1196;139215;-59
2022/09/09 13:16:08;;;;;;;2.30;1.10;;;;;;;25.33;46.28;98802.66;237031;1196;138367;-58
2022/09/09 13:21:11;;;;;;;3.20;1.40;;;;;;;25.34;46.52;98794.07;237278;1196;138285;-58
2022/09/09 13:26:23;;;;;;;4.10;1.30;;;;;;;25.41;46.39;98795.14;237185;1196;138818;-59
2022/09/09 13:31:32;;;;;;;2.00;1.10;;;;;;;25.33;46.24;98794.52;237389;1196;138723;-59
2022/09/09 13:36:35;;;;;;;1.70;1.00;;;;;;;25.34;46.28;98793.36;238834;1190;138311;-59
2022/09/09 13:41:48;;;;;;;2.80;1.10;;;;;;;25.39;46.00;98794.09;238735;1191;138448;-58
2022/09/09 13:47:06;;;;;;;3.90;2.00;;;;;;;25.44;45.98;98789.52;239016;1190;138225;-59
2022/09/09 13:52:18;;;;;;;5.80;1.80;;;;;;;25.40;46.28;98787.30;238908;1190;139350;-59
2022/09/09 13:57:24;;;;;;;3.60;1.20;;;;;;;25.29;46.49;98785.98;238723;1190;138435;-59
2022/09/09 14:02:28;;;;;;;7.10;1.40;;;;;;;25.17;46.23;98777.86;238890;1190;138628;-59
2022/09/09 14:07:31;;;;;;;1.90;1.30;;;;;;;25.05;46.46;98780.79;239018;1190;138023;-59
2022/09/09 14:12:36;;;;;;;3.70;1.50;;;;;;;24.95;46.81;98787.33;238888;1190;138357;-58
2022/09/09 14:17:39;;;;;;;3.60;1.20;;;;;;;24.84;47.02;98780.56;238719;1191;138764;-60
2022/09/09 14:22:42;;;;;;;1.50;1.30;;;;;;;24.76;47.11;98780.30;238730;1190;138524;-59
2022/09/09 14:27:45;;;;;;;5.40;1.80;;;;;;;24.68;47.35;98785.39;238966;1190;139010;-59
2022/09/09 14:32:48;;;;;;;5.20;1.60;;;;;;;24.54;47.30;98783.61;239022;1190;138534;-55
2022/09/09 14:37:51;;;;;;;3.30;1.60;;;;;;;24.43;47.64;98773.89;239011;1190;138209;-59
2022/09/09 14:42:56;;;;;;;3.70;1.50;;;;;;;24.39;47.67;98772.23;238786;1191;138491;-58
2022/09/09 14:47:59;;;;;;;4.50;1.40;;;;;;;24.31;47.93;98762.33;238757;1190;139139;-57
2022/09/09 14:53:02;;;;;;;4.70;1.30;;;;;;;24.27;48.00;98762.00;238868;1189;138756;-58
2022/09/09 14:58:06;;;;;;;4.60;1.70;;;;;;;24.29;48.01;98757.99;238782;1190;141705;-56
2022/09/09 15:03:10;;;;;;;2.80;1.20;;;;;;;24.28;48.12;98756.27;238800;1191;138676;-56
2022/09/09 15:08:15;;;;;;;3.60;1.20;;;;;;;24.29;48.17;98749.33;238845;1190;138919;-57
2022/09/09 15:13:18;;;;;;;1.70;1.00;;;;;;;24.35;48.17;98750.41;238706;1190;138802;-57
2022/09/09 15:18:21;;;;;;;2.50;1.10;;;;;;;24.31;47.93;98756.27;238721;1191;138336;-58
2022/09/09 15:23:24;;;;;;;2.80;1.20;;;;;;;24.28;47.87;98747.19;238819;1190;138923;-58
2022/09/09 15:28:28;;;;;;;4.20;1.20;;;;;;;24.32;47.70;98754.85;238955;1190;139198;-56
2022/09/09 15:33:31;;;;;;;2.10;0.80;;;;;;;24.31;47.61;98743.84;238860;1190;138997;-59
2022/09/09 15:38:34;;;;;;;4.30;1.30;;;;;;;24.28;47.64;98750.88;238568;1191;138664;-58
2022/09/09 15:43:39;;;;;;;1.60;1.50;;;;;;;24.16;47.63;98752.97;238804;1190;138514;-58
2022/09/09 15:48:43;;;;;;;3.00;1.70;;;;;;;24.01;47.78;98755.30;238771;1190;138644;-57
2022/09/09 15:53:57;;;;;;;4.60;1.90;;;;;;;23.89;48.02;98762.86;238884;1190;138973;-57
2022/09/09 15:59:03;;;;;;;3.20;1.80;;;;;;;23.85;48.35;98770.33;238842;1190;138692;-59
2022/09/09 16:04:06;;;;;;;6.80;2.10;;;;;;;23.77;48.61;98767.75;238648;1192;138402;-58
2022/09/09 16:09:09;;;;;;;2.20;1.70;;;;;;;23.74;48.85;98770.89;238818;1190;139419;-58
2022/09/09 16:14:15;;;;;;;2.10;1.80;;;;;;;23.69;48.87;98769.33;238723;1189;139290;-59
2022/09/09 16:19:18;;;;;;;2.70;2.00;;;;;;;23.64;48.99;98772.22;238767;1190;138543;-59
2022/09/09 16:24:23;;;;;;;3.50;1.90;;;;;;;23.60;49.01;98770.75;238750;1191;138185;-58
2022/09/09 16:29:27;;;;;;;2.40;1.90;;;;;;;23.58;49.16;98772.64;238836;1190;138352;-58
2022/09/09 16:34:30;;;;;;;3.10;2.10;;;;;;;23.49;49.26;98771.30;238674;1190;138986;-58
2022/09/09 16:39:33;;;;;;;6.90;2.20;;;;;;;23.46;49.34;98776.25;238664;1190;139000;-56
2022/09/09 16:44:36;;;;;;;3.80;2.10;;;;;;;23.40;49.53;98773.95;238587;1190;138783;-58
2022/09/09 16:49:40;;;;;;;5.50;2.20;;;;;;;23.30;49.64;98776.13;238790;1190;139151;-57
2022/09/09 16:54:44;;;;;;;3.60;2.70;;;;;;;23.25;49.70;98772.65;238777;1190;139728;-56
2022/09/09 16:59:48;;;;;;;5.00;3.00;;;;;;;23.19;49.87;98766.95;238670;1190;140412;-56
2022/09/09 17:04:52;;;;;;;5.20;3.20;;;;;;;23.11;49.90;98762.01;238569;1191;138760;-57
2022/09/09 17:09:55;;;;;;;6.00;3.10;;;;;;;23.04;50.04;98768.41;238813;1190;138519;-57
2022/09/09 17:15:00;;;;;;;4.00;3.00;;;;;;;22.97;50.31;98771.56;238750;1189;138580;-57
2022/09/09 17:20:06;;;;;;;6.70;3.40;;;;;;;22.89;50.34;98768.52;238662;1191;141085;-57
2022/09/09 17:25:08;;;;;;;;;;;;;;;22.81;50.61;98770.16;238762;1190;140450;-57
2022/09/09 17:30:12;;;;;;;7.50;3.50;;;;;;;22.71;50.81;98772.56;238855;1190;125039;-58
2022/09/09 17:35:16;;;;;;;5.80;3.80;;;;;;;22.60;51.05;98774.05;238829;1190;138875;-57
2022/09/09 17:40:20;;;;;;;7.70;3.90;;;;;;;22.54;51.24;98782.23;238859;1190;139571;-56
2022/09/09 17:45:23;;;;;;;5.50;3.10;;;;;;;22.50;51.52;98796.80;238806;1190;139920;-57
2022/09/09 17:50:26;;;;;;;5.40;3.50;;;;;;;22.43;51.66;98801.30;238865;1189;138523;-60
2022/09/09 17:55:29;;;;;;;7.70;3.90;;;;;;;22.34;51.93;98803.69;238877;1190;138338;-58
2022/09/09 18:00:32;;;;;;;11.10;4.40;;;;;;;22.27;52.05;98807.21;238854;1190;138272;-56
2022/09/09 18:05:34;;;;;;;6.20;4.30;;;;;;;22.20;52.38;98810.88;238716;1190;138668;-56
2022/09/09 18:10:38;;;;;;;12.20;4.40;;;;;;;22.12;52.56;98811.88;238893;1190;138301;-57
2022/09/09 18:15:41;;;;;;;6.90;4.50;;;;;;;22.07;52.80;98805.35;238837;1190;139922;-57
2022/09/09 18:20:58;;;;;;;8.80;4.60;;;;;;;21.97;53.01;98804.38;238728;1190;140145;-57
2022/09/09 18:26:09;;;;;;;7.80;4.80;;;;;;;21.92;53.31;98813.86;238733;1191;139459;-58
2022/09/09 18:31:14;;;;;;;6.10;4.30;;;;;;;21.85;53.53;98821.26;238954;1190;138206;-58
2022/09/09 18:36:43;;;;;;;6.10;4.20;;;;;;;21.80;53.63;98819.04;238913;1189;138838;-58
2022/09/09 18:41:49;;;;;;;5.90;4.00;;;;;;;21.76;53.82;98837.48;238888;1190;139249;-57
2022/09/09 18:46:53;;;;;;;7.70;4.30;;;;;;;21.71;54.05;98835.13;238708;1190;138705;-58
2022/09/09 18:51:56;;;;;;;7.70;3.80;;;;;;;21.66;54.29;98831.41;238673;1190;139076;-57
2022/09/09 18:57:00;;;;;;;8.40;5.00;;;;;;;21.58;54.45;98826.89;238936;1190;138850;-57
2022/09/09 19:02:03;;;;;;;7.60;4.50;;;;;;;21.56;54.70;98826.91;238701;1189;138877;-57
2022/09/09 19:07:06;;;;;;;7.00;4.60;;;;;;;21.53;54.75;98834.48;238476;1191;138502;-58
2022/09/09 19:12:09;;;;;;;8.80;4.80;;;;;;;21.54;54.91;98833.49;238833;1190;139164;-58
2022/09/09 19:17:12;;;;;;;7.30;5.10;;;;;;;21.53;54.98;98836.95;238910;1190;138530;-58
2022/09/09 19:22:16;;;;;;;7.10;5.00;;;;;;;21.52;55.04;98835.63;238809;1190;138299;-58
2022/09/09 19:27:19;;;;;;;7.50;4.80;;;;;;;21.49;55.10;98836.54;238774;1191;138650;-58
2022/09/09 19:32:23;;;;;;;6.60;4.80;;;;;;;21.46;55.21;98835.19;238917;1190;138736;-57
2022/09/09 19:37:45;;;;;;;7.30;4.60;;;;;;;21.40;55.25;98830.30;239016;1190;138570;-56
2022/09/09 19:42:52;;;;;;;9.30;4.80;;;;;;;21.36;55.32;98834.02;238935;1189;138303;-56
2022/09/09 19:47:55;;;;;;;7.20;4.80;;;;;;;21.31;55.57;98835.42;238906;1191;138747;-56
2022/09/09 19:52:58;;;;;;;9.10;5.50;;;;;;;21.23;55.59;98836.06;238806;1191;138752;-57
2022/09/09 19:58:03;;;;;;;10.00;5.10;;;;;;;21.16;55.65;98835.74;239044;1190;138605;-57
2022/09/09 20:03:06;;;;;;;11.80;5.40;;;;;;;21.12;56.00;98845.09;238721;1191;138725;-58
2022/09/09 20:08:21;;;;;;;;;;;;;;;21.08;56.13;98847.10;238777;1191;138710;-58
2022/09/09 20:13:24;;;;;;;11.00;6.40;;;;;;;21.08;56.22;98851.13;238878;1190;126092;-57
2022/09/09 20:18:31;;;;;;;9.70;7.10;;;;;;;21.12;56.38;98845.86;238957;1190;139853;-57
2022/09/09 20:23:36;;;;;;;12.60;7.50;;;;;;;21.14;56.60;98838.55;238724;1191;138870;-57
2022/09/09 20:28:41;;;;;;;14.30;7.80;;;;;;;21.17;56.70;98844.72;238892;1190;139232;-57
2022/09/09 20:33:46;;;;;;;16.70;8.90;;;;;;;21.19;56.94;98840.49;238668;1191;138910;-57
2022/09/09 20:38:56;;;;;;;16.40;10.40;;;;;;;21.20;56.85;98847.63;238803;1191;138798;-56
2022/09/09 20:44:06;;;;;;;13.00;9.20;;;;;;;21.11;57.02;98852.73;238944;1190;138747;-57
2022/09/09 20:49:10;;;;;;;15.80;9.40;;;;;;;21.05;57.11;98856.34;238827;1190;138890;-57
2022/09/09 20:54:16;;;;;;;15.10;9.80;;;;;;;21.02;57.24;98852.82;238882;1190;139989;-58
2022/09/09 20:59:22;;;;;;;12.10;8.50;;;;;;;20.97;57.51;98845.94;238507;1191;138992;-58
2022/09/09 21:04:25;;;;;;;12.00;9.40;;;;;;;20.97;57.60;98842.91;238769;1190;139894;-58
2022/09/09 21:09:28;;;;;;;11.60;9.10;;;;;;;20.97;57.83;98846.73;238827;1190;139417;-57
2022/09/09 21:14:31;;;;;;;12.20;9.30;;;;;;;20.96;58.02;98849.88;238856;1190;140224;-57
2022/09/09 21:19:34;;;;;;;11.20;9.20;;;;;;;20.96;58.18;98853.44;238667;1191;138693;-56
2022/09/09 21:24:37;;;;;;;11.20;9.40;;;;;;;20.94;58.32;98854.28;238766;1190;138897;-58
2022/09/09 21:29:41;;;;;;;15.60;9.50;;;;;;;20.88;58.41;98857.81;238835;1191;139489;-57
2022/09/09 21:34:44;;;;;;;14.70;10.00;;;;;;;20.83;58.48;98860.88;238776;1191;138742;-57
2022/09/09 21:39:47;;;;;;;13.20;10.20;;;;;;;20.77;58.70;98842.37;238883;1191;139355;-57
2022/09/09 21:44:50;;;;;;;10.70;8.70;;;;;;;20.71;58.98;98833.94;238961;1190;139119;-57
2022/09/09 21:49:53;;;;;;;12.60;9.40;;;;;;;20.72;58.96;98833.94;238821;1190;139435;-56
2022/09/09 21:54:56;;;;;;;15.70;9.70;;;;;;;20.73;59.17;98837.39;238653;1191;140562;-58
2022/09/09 21:59:59;;;;;;;13.10;10.60;;;;;;;20.72;59.29;98847.80;238635;1190;139251;-57
2022/09/09 22:05:03;;;;;;;16.60;10.50;;;;;;;20.67;59.34;98859.29;238763;1190;139909;-58
2022/09/09 22:10:08;;;;;;;13.90;10.80;;;;;;;20.64;59.41;98857.34;238916;1190;140302;-57
2022/09/09 22:15:12;;;;;;;14.20;11.30;;;;;;;20.58;59.52;98836.38;238803;1190;139648;-57
2022/09/09 22:20:15;;;;;;;13.00;10.90;;;;;;;20.57;59.80;98814.25;238730;1191;140249;-57
2022/09/09 22:25:18;;;;;;;14.70;11.60;;;;;;;20.54;59.81;98819.19;238802;1190;139563;-57
2022/09/09 22:30:21;;;;;;;16.10;11.50;;;;;;;20.51;59.88;98829.84;239019;1189;139601;-56
2022/09/09 22:35:24;;;;;;;15.30;11.60;;;;;;;20.52;60.08;98828.30;238850;1190;140154;-56
2022/09/09 22:40:26;;;;;;;26.90;14.80;;;;;;;20.52;60.12;98824.27;238878;1190;140264;-57
2022/09/09 22:45:31;;;;;;;18.80;12.80;;;;;;;20.50;60.34;98816.05;238855;1190;138820;-56
2022/09/09 22:50:35;;;;;;;19.00;13.60;;;;;;;20.46;60.38;98814.30;238817;1190;140918;-57
2022/09/09 22:55:58;;;;;;;14.90;12.50;;;;;;;20.39;60.44;98812.67;238825;1190;139021;-57
2022/09/09 23:01:14;;;;;;;56.10;34.50;;;;;;;20.31;60.52;98808.25;238518;1191;140196;-55
2022/09/09 23:06:23;;;;;;;30.60;17.50;;;;;;;20.28;60.67;98798.73;238791;1190;141117;-57
2022/09/09 23:11:30;;;;;;;21.00;14.40;;;;;;;20.28;60.71;98801.40;238806;1190;140379;-57
2022/09/09 23:16:44;;;;;;;19.30;13.20;;;;;;;20.27;60.86;98794.91;238806;1191;140830;-56
2022/09/09 23:21:47;;;;;;;18.80;14.30;;;;;;;20.24;60.96;98790.35;238788;1191;140211;-57
2022/09/09 23:26:51;;;;;;;17.40;13.50;;;;;;;20.19;61.06;98788.00;238942;1190;139191;-59
2022/09/09 23:31:54;;;;;;;16.70;13.30;;;;;;;20.14;61.15;98777.55;238870;1190;139910;-56
2022/09/09 23:36:57;;;;;;;19.80;13.60;;;;;;;20.07;61.20;98776.41;238710;1191;139251;-57